createdAt,value
2019-06-04T00:02:09.614Z,15.40
2019-06-04T00:04:40.890Z,15.40
2019-06-04T00:07:09.503Z,15.38
2019-06-04T00:09:38.773Z,15.36
2019-06-04T00:12:10.297Z,15.33
2019-06-04T00:14:39.524Z,15.33
2019-06-04T00:17:12.081Z,15.32
2019-06-04T00:19:40.819Z,15.32
2019-06-04T00:22:12.266Z,15.29
2019-06-04T00:24:46.603Z,15.29
2019-06-04T00:27:15.207Z,15.36
2019-06-04T00:29:44.513Z,15.41
2019-06-04T00:32:15.550Z,15.39
2019-06-04T00:34:51.640Z,15.33
2019-06-04T00:37:20.227Z,15.29
2019-06-04T00:39:53.855Z,15.30
2019-06-04T00:42:25.169Z,15.31
2019-06-04T00:44:53.928Z,15.28
2019-06-04T00:47:23.772Z,15.22
2019-06-04T00:49:53.182Z,15.14
2019-06-04T00:52:21.860Z,15.10
2019-06-04T00:54:53.443Z,15.05
2019-06-04T00:57:25.038Z,15.03
2019-06-04T00:59:54.239Z,15.05
2019-06-04T01:02:23.947Z,15.07
2019-06-04T01:04:55.065Z,15.06
2019-06-04T01:07:28.210Z,15.03
2019-06-04T01:09:57.415Z,15.04
2019-06-04T01:12:26.945Z,15.05
2019-06-04T01:14:55.492Z,15.05
2019-06-04T01:17:25.484Z,15.02
2019-06-04T01:19:58.492Z,15.02
2019-06-04T01:22:27.220Z,14.96
2019-06-04T01:24:56.420Z,14.97
2019-06-04T01:27:24.997Z,14.96
2019-06-04T01:29:56.241Z,14.98
2019-06-04T01:32:24.825Z,14.99
2019-06-04T01:34:53.480Z,14.99
2019-06-04T01:37:23.508Z,14.96
2019-06-04T01:39:52.501Z,14.90
2019-06-04T01:42:22.090Z,14.90
2019-06-04T01:44:50.667Z,14.86
2019-06-04T01:47:20.093Z,14.79
2019-06-04T01:49:48.705Z,14.73
2019-06-04T01:52:17.282Z,14.68
2019-06-04T01:54:45.826Z,14.62
2019-06-04T01:57:14.996Z,14.58
2019-06-04T01:59:43.552Z,14.53
2019-06-04T02:02:32.462Z,14.51
2019-06-04T02:04:48.043Z,14.50
2019-06-04T02:07:19.395Z,14.45
2019-06-04T02:09:48.511Z,14.39
2019-06-04T02:12:18.047Z,14.34
2019-06-04T02:14:47.406Z,14.34
2019-06-04T02:17:15.921Z,14.35
2019-06-04T02:19:44.495Z,14.30
2019-06-04T02:22:15.265Z,14.25
2019-06-04T02:24:43.983Z,14.23
2019-06-04T02:27:12.538Z,14.20
2019-06-04T02:29:41.118Z,14.17
2019-06-04T02:32:12.781Z,14.15
2019-06-04T02:34:41.971Z,14.12
2019-06-04T02:37:12.892Z,14.11
2019-06-04T02:39:41.545Z,14.17
2019-06-04T02:42:11.421Z,14.18
2019-06-04T02:44:40.404Z,14.18
2019-06-04T02:47:10.521Z,14.18
2019-06-04T02:49:43.071Z,14.14
2019-06-04T02:52:15.481Z,14.11
2019-06-04T02:54:49.269Z,14.09
2019-06-04T02:57:19.977Z,14.06
2019-06-04T02:59:51.528Z,14.07
2019-06-04T03:02:20.197Z,14.07
2019-06-04T03:04:49.367Z,14.04
2019-06-04T03:07:19.404Z,14.07
2019-06-04T03:09:48.221Z,14.09
2019-06-04T03:12:17.497Z,14.12
2019-06-04T03:14:46.928Z,14.17
2019-06-04T03:17:16.075Z,14.22
2019-06-04T03:19:44.819Z,14.27
2019-06-04T03:22:16.471Z,14.27
2019-06-04T03:24:45.903Z,14.26
2019-06-04T03:27:15.322Z,14.26
2019-06-04T03:29:47.246Z,14.20
2019-06-04T03:32:19.479Z,14.17
2019-06-04T03:34:46.699Z,14.15
2019-06-04T03:37:15.340Z,14.13
2019-06-04T03:39:43.996Z,14.14
2019-06-04T03:42:21.677Z,14.14
2019-06-04T03:44:50.367Z,14.16
2019-06-04T03:47:19.891Z,14.19
2019-06-04T03:49:48.415Z,14.19
2019-06-04T03:52:24.947Z,14.16
2019-06-04T03:54:53.729Z,14.15
2019-06-04T03:57:24.252Z,14.15
2019-06-04T03:59:52.985Z,14.15
2019-06-04T04:02:22.984Z,14.17
2019-06-04T04:05:12.516Z,14.17
2019-06-04T04:07:41.205Z,14.15
2019-06-04T04:10:10.373Z,14.13
2019-06-04T04:12:39.233Z,14.08
2019-06-04T04:15:10.840Z,14.05
2019-06-04T04:17:39.554Z,14.01
2019-06-04T04:20:08.198Z,13.96
2019-06-04T04:22:36.897Z,13.92
2019-06-04T04:25:08.738Z,13.92
2019-06-04T04:27:39.213Z,13.89
2019-06-04T04:30:10.102Z,13.88
2019-06-04T04:32:38.731Z,13.88
2019-06-04T04:35:13.636Z,13.87
2019-06-04T04:37:42.177Z,13.85
2019-06-04T04:40:24.425Z,13.84
2019-06-04T04:42:54.433Z,13.85
2019-06-04T04:45:34.534Z,13.90
2019-06-04T04:48:05.643Z,13.88
2019-06-04T04:50:35.623Z,13.87
2019-06-04T04:53:04.267Z,13.84
2019-06-04T04:55:33.435Z,13.82
2019-06-04T04:58:02.023Z,13.83
2019-06-04T05:00:32.449Z,13.87
2019-06-04T05:03:02.903Z,13.91
2019-06-04T05:05:36.625Z,13.97
2019-06-04T05:08:08.100Z,14.03
2019-06-04T05:10:37.601Z,14.07
2019-06-04T05:13:06.307Z,14.06
2019-06-04T05:15:34.946Z,14.03
2019-06-04T05:18:05.158Z,14.00
2019-06-04T05:20:35.013Z,13.98
2019-06-04T05:23:03.723Z,14.00
2019-06-04T05:25:33.331Z,14.03
2019-06-04T05:28:01.969Z,14.02
2019-06-04T05:30:34.818Z,13.99
2019-06-04T05:33:01.912Z,14.00
2019-06-04T05:35:32.807Z,14.03
2019-06-04T05:38:03.119Z,14.09
2019-06-04T05:40:34.911Z,14.14
2019-06-04T05:43:03.900Z,14.20
2019-06-04T05:45:32.963Z,14.21
2019-06-04T05:48:01.739Z,14.23
2019-06-04T05:50:33.319Z,14.23
2019-06-04T05:53:05.607Z,14.26
2019-06-04T05:55:34.246Z,14.26
2019-06-04T05:58:02.978Z,14.30
2019-06-04T06:00:32.213Z,14.35
2019-06-04T06:03:06.610Z,14.42
2019-06-04T06:05:41.010Z,14.44
2019-06-04T06:08:06.669Z,14.48
2019-06-04T06:10:51.624Z,14.52
2019-06-04T06:13:20.307Z,14.53
2019-06-04T06:15:50.461Z,14.55
2019-06-04T06:18:19.027Z,14.57
2019-06-04T06:20:48.714Z,14.58
2019-06-04T06:23:30.217Z,14.57
2019-06-04T06:25:59.070Z,14.57
2019-06-04T06:28:30.451Z,14.59
2019-06-04T06:31:06.036Z,14.60
2019-06-04T06:33:37.856Z,14.60
2019-06-04T06:36:05.811Z,14.59
2019-06-04T06:38:54.034Z,14.61
2019-06-04T06:44:03.169Z,14.68
2019-06-04T06:46:35.805Z,14.73
2019-06-04T06:49:05.499Z,14.81
2019-06-04T06:51:35.405Z,14.89
2019-06-04T06:54:04.487Z,14.95
2019-06-04T06:56:36.500Z,15.01
2019-06-04T06:59:11.616Z,15.08
2019-06-04T07:01:42.952Z,15.13
2019-06-04T07:04:12.264Z,15.16
2019-06-04T07:06:42.701Z,15.19
2019-06-04T07:09:15.124Z,15.18
2019-06-04T07:11:49.498Z,15.20
2019-06-04T07:14:23.740Z,15.27
2019-06-04T07:17:00.213Z,15.36
2019-06-04T07:19:37.490Z,15.45
2019-06-04T07:22:08.798Z,15.56
2019-06-04T07:24:38.009Z,15.59
2019-06-04T07:27:13.060Z,15.62
2019-06-04T07:29:45.184Z,15.64
2019-06-04T07:32:15.486Z,15.67
2019-06-04T07:34:47.379Z,15.69
2019-06-04T07:37:19.458Z,15.68
2019-06-04T07:40:06.022Z,15.69
2019-06-04T07:42:35.037Z,15.69
2019-06-04T07:45:13.006Z,15.75
2019-06-04T07:47:41.881Z,15.85
2019-06-04T07:50:14.192Z,15.96
2019-06-04T07:52:48.154Z,16.03
2019-06-04T07:55:22.260Z,16.11
2019-06-04T07:57:52.144Z,16.18
2019-06-04T08:00:45.504Z,16.25
2019-06-04T08:03:17.752Z,16.30
2019-06-04T08:05:46.377Z,16.34
2019-06-04T08:08:15.246Z,16.38
2019-06-04T08:10:46.156Z,16.37
2019-06-04T08:13:16.281Z,16.35
2019-06-04T08:15:45.106Z,16.34
2019-06-04T08:18:16.086Z,16.28
2019-06-04T08:20:44.724Z,16.28
2019-06-04T08:23:20.254Z,16.26
2019-06-04T08:25:52.386Z,16.14
2019-06-04T08:28:22.617Z,16.11
2019-06-04T08:30:52.099Z,16.11
2019-06-04T08:33:25.600Z,16.10
2019-06-04T08:35:58.646Z,16.09
2019-06-04T08:38:39.759Z,16.08
2019-06-04T08:41:10.095Z,16.07
2019-06-04T08:43:47.746Z,16.10
2019-06-04T08:46:17.684Z,16.09
2019-06-04T08:48:47.814Z,16.11
2019-06-04T08:51:17.960Z,16.12
2019-06-04T08:53:46.963Z,16.11
2019-06-04T08:56:17.757Z,16.10
2019-06-04T08:58:48.285Z,16.10
2019-06-04T09:01:20.836Z,16.13
2019-06-04T09:03:54.981Z,16.07
2019-06-04T09:06:26.833Z,15.99
2019-06-04T09:08:56.240Z,15.99
2019-06-04T09:11:28.216Z,15.98
2019-06-04T09:14:00.314Z,15.95
2019-06-04T09:16:32.882Z,15.89
2019-06-04T09:19:05.370Z,15.86
2019-06-04T09:21:40.875Z,15.85
2019-06-04T09:24:14.890Z,15.85
2019-06-04T09:26:59.060Z,15.84
2019-06-04T09:29:18.582Z,15.83
2019-06-04T09:31:48.749Z,15.83
2019-06-04T09:34:20.180Z,15.82
2019-06-04T09:36:50.786Z,15.77
2019-06-04T09:39:20.930Z,15.80
2019-06-04T09:41:52.300Z,15.82
2019-06-04T09:44:32.339Z,15.82
2019-06-04T09:46:58.064Z,15.84
2019-06-04T09:49:27.736Z,15.86
2019-06-04T09:51:57.429Z,15.87
2019-06-04T09:54:30.437Z,15.91
2019-06-04T09:56:59.769Z,15.91
2019-06-04T09:59:29.075Z,15.96
2019-06-04T10:01:59.153Z,15.98
2019-06-04T10:04:29.702Z,16.01
2019-06-04T10:07:01.816Z,16.05
2019-06-04T10:09:33.161Z,16.08
2019-06-04T10:12:05.816Z,16.12
2019-06-04T10:14:33.161Z,16.16
2019-06-04T10:17:03.869Z,16.21
2019-06-04T10:19:36.828Z,16.26
2019-06-04T10:22:08.926Z,16.30
2019-06-04T10:24:40.009Z,16.34
2019-06-04T10:27:10.503Z,16.35
2019-06-04T10:29:39.861Z,16.35
2019-06-04T10:32:10.749Z,16.33
2019-06-04T10:34:50.133Z,16.34
2019-06-04T10:37:21.620Z,16.34
2019-06-04T10:40:03.029Z,16.33
2019-06-04T10:42:33.657Z,16.32
2019-06-04T10:45:07.881Z,16.29
2019-06-04T10:47:36.592Z,16.29
2019-06-04T10:50:17.195Z,16.23
2019-06-04T10:52:54.748Z,16.19
2019-06-04T10:55:26.353Z,16.19
2019-06-04T10:58:02.314Z,16.25
2019-06-04T11:00:52.765Z,16.18
2019-06-04T11:03:28.104Z,16.18
2019-06-04T11:05:58.413Z,16.18
2019-06-04T11:08:47.943Z,16.20
2019-06-04T11:11:03.666Z,16.20
2019-06-04T11:13:33.182Z,16.21
2019-06-04T11:16:09.436Z,16.22
2019-06-04T11:21:48.816Z,16.16
2019-06-04T11:24:32.624Z,16.23
2019-06-04T11:30:25.295Z,16.18
2019-06-04T11:33:13.535Z,15.93
2019-06-04T11:36:04.416Z,15.75
2019-06-04T11:39:16.915Z,15.30
2019-06-04T11:41:39.821Z,15.30
2019-06-04T11:44:29.111Z,15.16
2019-06-04T11:47:02.597Z,15.12
2019-06-04T11:49:33.786Z,15.08
2019-06-04T11:52:14.350Z,15.04
2019-06-04T11:54:45.109Z,14.99
2019-06-04T11:57:14.833Z,14.97
2019-06-04T11:59:48.948Z,14.95
2019-06-04T12:02:21.819Z,14.94
2019-06-04T12:05:00.576Z,14.88
2019-06-04T12:07:28.979Z,14.89
2019-06-04T12:10:03.483Z,14.88
2019-06-04T12:12:44.681Z,14.84
2019-06-04T12:15:12.573Z,14.81
2019-06-04T12:17:42.680Z,14.79
2019-06-04T12:20:13.418Z,14.82
2019-06-04T12:23:25.999Z,14.82
2019-06-04T12:25:37.071Z,14.80
2019-06-04T12:28:25.349Z,14.81
2019-06-04T12:30:58.806Z,14.80
2019-06-04T12:33:56.619Z,14.83
2019-06-04T12:36:28.066Z,14.90
2019-06-04T12:38:58.907Z,15.00
2019-06-04T12:41:28.796Z,15.10
2019-06-04T12:44:05.941Z,15.22
2019-06-04T12:46:30.627Z,15.37
2019-06-04T12:49:02.185Z,15.54
2019-06-04T12:54:30.888Z,15.99
2019-06-04T12:57:01.886Z,16.19
2019-06-04T12:59:32.341Z,16.34
2019-06-04T13:02:06.270Z,16.38
2019-06-04T13:04:44.539Z,16.38
2019-06-04T13:07:15.106Z,16.41
2019-06-04T13:10:15.975Z,16.43
2019-06-04T13:15:25.485Z,16.52
2019-06-04T13:20:44.759Z,16.48
2019-06-04T13:23:15.799Z,16.38
2019-06-04T13:25:48.175Z,16.29
2019-06-04T13:28:21.285Z,16.26
2019-06-04T13:30:59.759Z,16.24
2019-06-04T13:33:30.352Z,16.29
2019-06-04T13:36:16.324Z,16.38
2019-06-04T13:39:28.613Z,16.48
2019-06-04T13:41:46.732Z,16.58
2019-06-04T13:44:25.387Z,16.58
2019-06-04T13:47:12.818Z,16.66
2019-06-04T13:49:49.171Z,16.68
2019-06-04T13:52:23.554Z,16.68
2019-06-04T13:54:54.648Z,16.69
2019-06-04T13:57:26.052Z,16.73
2019-06-04T14:02:53.471Z,16.81
2019-06-04T14:05:23.892Z,16.86
2019-06-04T14:08:14.295Z,16.87
2019-06-04T14:10:52.291Z,16.91
2019-06-04T14:16:45.285Z,16.89
2019-06-04T14:19:18.949Z,16.87
2019-06-04T14:21:52.807Z,16.84
2019-06-04T14:24:55.275Z,16.84
2019-06-04T14:27:24.148Z,16.88
2019-06-04T14:29:56.807Z,16.89
2019-06-04T14:32:32.857Z,16.94
2019-06-04T14:35:01.740Z,17.06
2019-06-04T14:40:32.883Z,17.28
2019-06-04T14:42:56.220Z,17.38
2019-06-04T14:45:29.708Z,17.46
2019-06-04T14:48:00.870Z,17.50
2019-06-04T14:50:29.597Z,17.56
2019-06-04T14:53:02.485Z,17.60
2019-06-04T14:55:34.029Z,17.65
2019-06-04T14:58:07.836Z,17.65
2019-06-04T15:00:49.875Z,17.68
2019-06-04T15:03:19.688Z,17.73
2019-06-04T15:05:48.548Z,17.80
2019-06-04T15:08:20.750Z,17.81
2019-06-04T15:10:52.024Z,17.81
2019-06-04T15:28:56.606Z,17.71
2019-06-04T15:31:57.017Z,17.71
2019-06-04T15:34:55.992Z,17.77
2019-06-04T15:37:53.463Z,17.85
2019-06-04T15:40:49.873Z,17.87
2019-06-04T15:50:23.962Z,17.71
2019-06-04T15:52:59.319Z,17.60
2019-06-04T16:01:41.860Z,17.29
2019-06-04T16:07:50.951Z,17.14
2019-06-04T16:10:39.073Z,17.11
2019-06-04T16:13:43.586Z,17.08
2019-06-04T16:16:41.266Z,17.05
2019-06-04T16:19:24.025Z,17.00
2019-06-04T16:22:12.349Z,16.97
2019-06-04T16:24:49.176Z,16.98
2019-06-04T16:30:09.419Z,16.95
2019-06-04T16:32:55.601Z,16.98
2019-06-04T16:35:25.242Z,16.97
2019-06-04T16:37:56.404Z,16.97
2019-06-04T16:40:26.145Z,16.98
2019-06-04T16:42:56.725Z,16.95
2019-06-04T16:45:33.841Z,16.93
2019-06-04T16:48:05.849Z,16.84
2019-06-04T16:50:35.899Z,16.79
2019-06-04T16:53:13.401Z,16.79
2019-06-04T16:55:42.665Z,16.78
2019-06-04T16:58:13.556Z,16.81
2019-06-04T17:00:50.486Z,16.84
2019-06-04T17:06:11.592Z,16.86
2019-06-04T17:08:44.358Z,16.90
2019-06-04T17:11:14.720Z,16.93
2019-06-04T17:13:51.021Z,16.93
2019-06-04T17:16:26.726Z,16.93
2019-06-04T17:19:07.151Z,16.92
2019-06-04T17:21:38.737Z,16.88
2019-06-04T17:24:10.802Z,16.77
2019-06-04T17:26:40.453Z,16.67
2019-06-04T17:29:12.903Z,16.57
2019-06-04T17:31:57.268Z,16.48
2019-06-04T17:34:29.090Z,16.45
2019-06-04T17:36:59.386Z,16.42
2019-06-04T17:39:33.139Z,16.48
2019-06-04T17:42:03.818Z,16.52
2019-06-04T17:44:32.362Z,16.61
2019-06-04T17:47:03.449Z,16.69
2019-06-04T17:49:34.243Z,16.81
2019-06-04T17:52:03.492Z,16.85
2019-06-04T17:54:32.747Z,16.83
2019-06-04T17:57:04.216Z,16.76
2019-06-04T17:59:32.841Z,16.77
2019-06-04T18:02:04.005Z,16.79
2019-06-04T18:04:33.512Z,16.86
2019-06-04T18:07:02.123Z,16.89
2019-06-04T18:09:33.214Z,16.82
2019-06-04T18:12:01.901Z,16.82
2019-06-04T18:14:31.134Z,16.71
2019-06-04T18:16:59.787Z,16.68
2019-06-04T18:19:35.923Z,16.77
2019-06-04T18:22:04.772Z,16.77
2019-06-04T18:24:34.274Z,16.84
2019-06-04T18:27:11.061Z,16.88
2019-06-04T18:29:48.796Z,16.86
2019-06-04T18:32:19.146Z,16.91
2019-06-04T18:34:47.858Z,16.88
2019-06-04T18:37:16.481Z,16.86
2019-06-04T18:39:47.896Z,16.82
2019-06-04T18:42:16.520Z,16.78
2019-06-04T18:44:47.341Z,16.75
2019-06-04T18:47:15.865Z,16.75
2019-06-04T18:49:44.535Z,16.72
2019-06-04T18:52:13.452Z,16.63
2019-06-04T18:54:44.880Z,16.59
2019-06-04T18:57:14.965Z,16.51
2019-06-04T18:59:45.812Z,16.41
2019-06-04T19:02:15.531Z,16.30
2019-06-04T19:04:46.846Z,16.30
2019-06-04T19:07:16.545Z,16.29
2019-06-04T19:10:02.532Z,16.27
2019-06-04T19:12:35.319Z,16.24
2019-06-04T19:15:05.581Z,16.17
2019-06-04T19:17:43.831Z,16.11
2019-06-04T19:20:14.565Z,15.78
2019-06-04T19:22:46.196Z,15.78
2019-06-04T19:25:26.440Z,15.61
2019-06-04T19:27:58.674Z,15.61
2019-06-04T19:30:33.075Z,15.64
2019-06-04T19:33:02.239Z,15.67
2019-06-04T19:35:30.917Z,15.67
2019-06-04T19:38:02.460Z,15.70
2019-06-04T19:40:31.964Z,15.76
2019-06-04T19:43:02.474Z,15.76
2019-06-04T19:45:31.668Z,15.88
2019-06-04T19:48:00.270Z,15.83
2019-06-04T19:50:30.081Z,15.83
2019-06-04T19:52:59.642Z,15.73
2019-06-04T19:55:28.282Z,15.51
2019-06-04T19:57:57.999Z,15.43
2019-06-04T20:00:26.695Z,15.43
2019-06-04T20:02:56.882Z,15.43
2019-06-04T20:05:43.989Z,15.45
2019-06-04T20:07:59.986Z,15.42
2019-06-04T20:10:30.254Z,15.42
2019-06-04T20:12:59.003Z,15.40
2019-06-04T20:15:28.003Z,15.36
2019-06-04T20:17:56.715Z,15.39
2019-06-04T20:20:25.362Z,15.39
2019-06-04T20:22:54.491Z,15.35
2019-06-04T20:25:26.392Z,15.31
2019-06-04T20:27:57.854Z,15.34
2019-06-04T20:30:27.711Z,15.35
2019-06-04T20:32:57.161Z,15.41
2019-06-04T20:35:26.597Z,15.39
2019-06-04T20:38:01.550Z,15.39
2019-06-04T20:40:25.864Z,15.39
2019-06-04T20:43:02.214Z,15.39
2019-06-04T20:45:32.440Z,15.39
2019-06-04T20:48:02.246Z,15.39
2019-06-04T20:50:36.290Z,15.26
2019-06-04T20:53:05.804Z,15.26
2019-06-04T20:55:40.781Z,15.33
2019-06-04T20:58:10.191Z,15.26
2019-06-04T21:02:47.849Z,15.25
2019-06-04T21:05:24.368Z,15.23
2019-06-04T21:07:58.458Z,15.29
2019-06-04T21:10:27.078Z,15.34
2019-06-04T21:12:55.829Z,15.37
2019-06-04T21:15:26.177Z,15.33
2019-06-04T21:17:58.142Z,15.28
2019-06-04T21:20:44.156Z,15.28
2019-06-04T21:23:13.150Z,15.24
2019-06-04T21:25:43.823Z,15.19
2019-06-04T21:28:14.363Z,15.15
2019-06-04T21:30:43.657Z,15.14
2019-06-04T21:33:12.274Z,15.14
2019-06-04T21:35:40.830Z,15.12
2019-06-04T21:38:09.511Z,15.12
2019-06-04T21:40:38.060Z,15.12
2019-06-04T21:43:06.578Z,15.08
2019-06-04T21:45:42.781Z,15.09
2019-06-04T21:48:06.746Z,15.09
2019-06-04T21:50:39.041Z,15.09
2019-06-04T21:53:14.213Z,15.04
2019-06-04T21:55:39.263Z,15.04
2019-06-04T21:58:08.725Z,15.03
2019-06-04T22:00:38.035Z,15.06
2019-06-04T22:03:12.321Z,15.04
2019-06-04T22:05:50.016Z,14.97
2019-06-04T22:08:18.688Z,14.97
2019-06-04T22:10:48.277Z,15.00
2019-06-04T22:13:18.485Z,15.05
2019-06-04T22:16:00.484Z,15.03
2019-06-04T22:18:26.817Z,15.06
2019-06-04T22:20:58.227Z,15.18
2019-06-04T22:23:26.917Z,15.18
2019-06-04T22:25:55.591Z,15.18
2019-06-04T22:28:24.255Z,15.10
2019-06-04T22:30:55.029Z,15.08
2019-06-04T22:33:23.965Z,15.09
2019-06-04T22:35:53.114Z,15.11
2019-06-04T22:38:21.656Z,15.16
2019-06-04T22:40:51.952Z,15.16
2019-06-04T22:43:20.709Z,15.15
2019-06-04T22:45:50.773Z,15.12
2019-06-04T22:48:20.121Z,15.12
2019-06-04T22:50:51.536Z,15.16
2019-06-04T22:53:19.482Z,15.19
2019-06-04T22:55:48.095Z,15.19
2019-06-04T22:58:19.547Z,15.19
2019-06-04T23:00:48.323Z,15.18
2019-06-04T23:03:18.832Z,15.13
2019-06-04T23:05:47.402Z,15.10
2019-06-04T23:08:16.022Z,15.09
2019-06-04T23:10:44.657Z,15.11
2019-06-04T23:13:16.611Z,15.18
2019-06-04T23:15:45.336Z,15.18
2019-06-04T23:18:13.849Z,15.16
2019-06-04T23:20:42.581Z,15.11
2019-06-04T23:23:11.328Z,15.10
2019-06-04T23:25:40.012Z,15.17
2019-06-04T23:28:08.819Z,15.20
2019-06-04T23:30:40.100Z,15.20
2019-06-04T23:33:10.673Z,15.17
2019-06-04T23:35:39.886Z,15.18
2019-06-04T23:38:08.568Z,15.10
2019-06-04T23:40:37.312Z,15.10
2019-06-04T23:43:06.465Z,15.03
2019-06-04T23:45:35.158Z,14.96
2019-06-04T23:48:04.286Z,14.96
2019-06-04T23:50:34.626Z,14.92
2019-06-04T23:53:03.649Z,14.98
2019-06-04T23:55:32.366Z,15.02
2019-06-04T23:58:02.584Z,15.02
